Agat, GU

5:50 PM ChST on July 30, 2014 (GMT +1000)
Rota I International (PGRO) Elev 607 ft | 14.17 °N, 145.24 °E | Change Station
Active Advisory: Flash Flood Watch

Current weather conditions updated 1 hour ago

Light Rain
Light Rain
75 °F
Feels Like 75 °F
N
22
Wind Variable Wind from SSW
Gusts 31 mph

Tomorrow is forecast to be Warmer than today. Thunderstorms early.

Today
High -- | Low -- °F
--% Chance of Precip.
Yesterday
High -- | Low -- °F
Precip. -- in
6:05 AM 6:49 PM
Waxing Crescent, 10% visible
Pressure 29.66 in
Visibility 6.0 miles
Clouds Scattered Clouds 1200 ft
Overcast 5000 ft
Dew Point 75 °F
Humidity 100%
Rainfall 0.00 in
Snow Depth Not available.
UV 1 out of 12
Pollen Not available.
Air Quality Not available.
Flu Activity Not available.
METAR PGRO 300650Z 20019G27KT 6SM -RA SCT012CB OVC050 24/24 A2966 RMK CB OHD MOV N

More Conditions Fewer Conditions

Pressure 29.66 in
Visibility 6.0 miles
Clouds Scattered Clouds 1200 ft
Overcast 5000 ft
Dew Point 75 °F
Humidity 100%
Rainfall 0.00 in
Snow Depth Not available.
UV 1 out of 12
Pollen Not available.
Air Quality Not available.
Flu Activity Not available.
METAR PGRO 300650Z 20019G27KT 6SM -RA SCT012CB OVC050 24/24 A2966 RMK CB OHD MOV N

More Conditions Fewer Conditions

10-Day Weather Forecast

Almanac

Astronomy

Jul. 30, 2014 Rise Set
Actual Time 6:05 AM ChST 6:49 PM ChST
Civil Twilight 5:43 AM ChST 7:12 PM ChST
Nautical Twilight 5:16 AM ChST 7:38 PM ChST
Astronomical Twilight 4:49 AM ChST 8:05 PM ChST
Moon 8:25 AM ChST 8:53 PM ChST
Length of Visible Light 13h 29m
Length of Day
12h 43m
Tomorrow will be 0m 32s shorter.
Waxing Crescent, 10% of the Moon is Illuminated
Today
Waxing Crescent
Aug 3
First Quarter
Aug 10
Full
Aug 17
Last Quarter
Aug 25
New

Community

WunderPhotos

Upload Photos

1,739,022 photos uploaded!

WunderBlogs® & News

By Dr. Jeff Masters
Director of Meteorology, Weather Underground
By Kari Strenfel
Meteorologist, Weather Underground
By Christopher C. Burt
Weather Historian, Weather Underground
July 29, 2014
July 29, 2014
July 29, 2014

Nearby

Snow Depth

Station Depth Elevation
No new snow has been reported.

Earthquake Activity

City Distance Mag. Time & Date
No recent earthquake activity has been reported nearby.
Minimum magnitude displayed is 2.5.

Coastal Water Temperatures

Place Temperature
No Stations Reporting

Nearby Weather Stations

Station Location Temp. Heat Index Dew Point Humidity Wind Precip. Elev Updated Type
Jeffs Pirates Cove, Guam, Ipan Talofofo, GU 77.0 °F 78 °F 74 °F 92% South  at  5.0 mph 0.04 in / hr 27 ft 5:49 PM ChST Rapid Fire
Maite, Maite, GU 77.4 °F 79 °F 76 °F 94% SW  at  18.0 mph 0.06 in / hr 140 ft 5:49 PM ChST Rapid Fire
Perezville, Tamuning, Guam 77.7 °F 80 °F 74 °F 90% South  at  25.0 mph 0.08 in / hr 120 ft 5:40 PM ChST Normal
Ypaopao Estates, Dededo 75.0 °F 73 °F 73 °F 94% South  at  2.9 mph 0.05 in / hr 420 ft 5:47 PM ChST Rapid Fire

Show More Stations Show Fewer Stations